Time;durP1;ratioP1;P1;durP2;ratioP2;P2;SDS_P1;SDS_P2;PMS_P1;PMS_P2;Temp;Humidity;BMP_temperature;BMP_pressure;BME280_temperature;BME280_humidity;BME280_pressure;Samples;Min_cycle;Max_cycle;Signal;HPM_P1;HPM_P2
2023/03/09 00:01:40;;;;;;;22.73;14.50;;;1.10;99.90;;;;;;5051918;28;20296;-82
2023/03/09 00:04:08;;;;;;;26.95;15.38;;;1.10;99.90;;;;;;5047406;28;20044;-84
2023/03/09 00:06:34;;;;;;;22.17;14.23;;;1.10;99.90;;;;;;5046930;28;20043;-82
2023/03/09 00:09:03;;;;;;;23.23;14.32;;;1.10;99.90;;;;;;5050301;28;20473;-88
2023/03/09 00:11:29;;;;;;;25.17;15.05;;;1.10;99.90;;;;;;5049939;28;20032;-82
2023/03/09 00:13:55;;;;;;;21.10;14.02;;;1.10;99.90;;;;;;5051160;28;20037;-82
2023/03/09 00:16:26;;;;;;;23.23;14.93;;;1.10;99.90;;;;;;5045720;28;20123;-83
2023/03/09 00:18:56;;;;;;;21.75;14.00;;;1.10;99.90;;;;;;5051272;28;20032;-83
2023/03/09 00:21:34;;;;;;;20.55;12.95;;;1.00;99.90;;;;;;5048546;28;20538;-84
2023/03/09 00:24:24;;;;;;;23.67;14.90;;;1.10;99.90;;;;;;5043476;28;20044;-82
2023/03/09 00:26:56;;;;;;;21.38;13.80;;;1.10;99.90;;;;;;5024347;28;20092;-85
2023/03/09 00:29:24;;;;;;;22.25;14.02;;;1.10;99.90;;;;;;5045253;28;20036;-83
2023/03/09 00:31:50;;;;;;;23.15;13.20;;;1.10;99.90;;;;;;5042373;28;20088;-87
2023/03/09 00:34:16;;;;;;;20.13;12.88;;;1.10;99.90;;;;;;5049701;28;20036;-82
2023/03/09 00:36:41;;;;;;;23.63;14.00;;;1.10;99.90;;;;;;5054910;28;20057;-84
2023/03/09 00:39:09;;;;;;;21.83;13.98;;;1.10;99.90;;;;;;5049413;28;20059;-84
2023/03/09 00:41:35;;;;;;;19.83;12.57;;;1.10;99.90;;;;;;5047579;28;20090;-88
2023/03/09 00:44:02;;;;;;;23.25;13.18;;;1.10;99.90;;;;;;5036294;28;20105;-84
2023/03/09 00:46:28;;;;;;;18.45;11.85;;;1.10;99.90;;;;;;5047163;28;20387;-83
2023/03/09 00:48:54;;;;;;;20.98;12.95;;;1.10;99.90;;;;;;5044337;28;20115;-83
2023/03/09 00:51:20;;;;;;;21.42;13.45;;;1.10;99.90;;;;;;5038126;28;20128;-84
2023/03/09 00:53:46;;;;;;;17.52;11.23;;;1.10;99.90;;;;;;5043962;28;20072;-83
2023/03/09 00:56:19;;;;;;;20.92;12.48;;;1.10;99.90;;;;;;5049179;28;20028;-84
2023/03/09 00:58:45;;;;;;;17.52;11.07;;;1.10;99.90;;;;;;5047964;28;20843;-83
2023/03/09 01:01:14;;;;;;;17.73;11.70;;;1.10;99.90;;;;;;5041689;28;20029;-83
2023/03/09 01:03:43;;;;;;;16.98;11.13;;;1.10;99.90;;;;;;5047965;28;20067;-89
2023/03/09 01:06:09;;;;;;;18.13;12.15;;;1.10;99.90;;;;;;5045266;28;20036;-84
2023/03/09 01:08:35;;;;;;;19.42;12.45;;;1.20;99.90;;;;;;5041173;28;20074;-86
2023/03/09 01:11:05;;;;;;;20.40;12.95;;;1.10;99.90;;;;;;5052081;28;20029;-81
2023/03/09 01:13:34;;;;;;;18.90;12.45;;;1.10;99.90;;;;;;5037719;28;20017;-83
2023/03/09 01:16:01;;;;;;;22.17;12.10;;;1.10;99.90;;;;;;5044975;28;20501;-82
2023/03/09 01:18:27;;;;;;;18.80;11.88;;;1.10;99.90;;;;;;5046796;28;20162;-81
2023/03/09 01:20:52;;;;;;;20.67;13.07;;;1.10;99.90;;;;;;5057533;28;20437;-82
2023/03/09 01:23:18;;;;;;;17.98;11.98;;;1.00;99.90;;;;;;5046083;28;20047;-82
2023/03/09 01:25:45;;;;;;;18.27;11.63;;;1.00;99.90;;;;;;5043595;28;20472;-82
2023/03/09 01:28:11;;;;;;;16.50;10.63;;;1.00;99.90;;;;;;5048459;28;20021;-82
2023/03/09 01:30:37;;;;;;;15.23;9.98;;;1.00;99.90;;;;;;5045769;28;20033;-82
2023/03/09 01:33:03;;;;;;;17.33;11.20;;;1.00;99.90;;;;;;5051599;28;20024;-82
2023/03/09 01:35:28;;;;;;;14.70;10.07;;;1.00;99.90;;;;;;5048709;28;20045;-81
2023/03/09 01:37:55;;;;;;;12.82;9.30;;;1.00;99.90;;;;;;5045374;28;20043;-84
2023/03/09 01:40:24;;;;;;;13.32;9.60;;;1.00;99.90;;;;;;5040400;28;20390;-86
2023/03/09 01:42:56;;;;;;;12.55;9.02;;;1.10;99.90;;;;;;5055903;28;20052;-82
2023/03/09 01:45:22;;;;;;;15.77;10.45;;;1.10;99.90;;;;;;5044019;28;20043;-84
2023/03/09 01:47:49;;;;;;;15.60;10.50;;;1.10;99.90;;;;;;5045855;28;20029;-82
2023/03/09 01:50:19;;;;;;;14.40;10.00;;;1.00;99.90;;;;;;5036557;28;20043;-82
2023/03/09 01:52:47;;;;;;;14.95;9.98;;;1.00;99.90;;;;;;5047179;28;20355;-82
2023/03/09 01:55:18;;;;;;;13.02;9.13;;;1.10;99.90;;;;;;5046969;28;20110;-82
2023/03/09 01:57:56;;;;;;;15.13;10.43;;;1.00;99.90;;;;;;5046110;28;20480;-82
2023/03/09 02:00:24;;;;;;;13.02;9.27;;;1.00;99.90;;;;;;5053672;28;20029;-83
2023/03/09 02:03:08;;;;;;;12.85;9.32;;;1.00;99.90;;;;;;5044972;28;20028;-87
2023/03/09 02:05:42;;;;;;;11.30;8.63;;;1.00;99.90;;;;;;5047247;28;20033;-82
2023/03/09 02:08:10;;;;;;;10.80;8.18;;;1.00;99.90;;;;;;5049512;28;20036;-82
2023/03/09 02:10:41;;;;;;;12.27;8.18;;;1.00;99.90;;;;;;5044328;28;20033;-85
2023/03/09 02:13:10;;;;;;;12.23;8.52;;;1.00;99.90;;;;;;5042344;28;20049;-87
2023/03/09 02:15:36;;;;;;;10.07;7.30;;;1.00;99.90;;;;;;5039034;28;20139;-85
2023/03/09 02:18:02;;;;;;;14.30;9.77;;;1.00;99.90;;;;;;5047979;28;20041;-83
2023/03/09 02:20:53;;;;;;;13.95;9.52;;;1.00;99.90;;;;;;5057674;28;20074;-83
2023/03/09 02:23:25;;;;;;;13.85;9.48;;;1.00;99.90;;;;;;5038697;28;20052;-82
2023/03/09 02:26:10;;;;;;;14.10;9.70;;;1.00;99.90;;;;;;5043629;28;20048;-89
2023/03/09 02:28:36;;;;;;;12.48;8.55;;;1.00;99.90;;;;;;5047672;28;20103;-85
2023/03/09 02:31:02;;;;;;;13.02;9.55;;;1.00;99.90;;;;;;5041018;28;20533;-82
2023/03/09 02:33:28;;;;;;;13.38;9.10;;;0.90;99.90;;;;;;5050305;28;20041;-86
2023/03/09 02:35:56;;;;;;;14.77;10.13;;;1.00;99.90;;;;;;5054078;28;20391;-80
2023/03/09 02:38:22;;;;;;;13.25;9.18;;;1.10;99.90;;;;;;5052921;28;20256;-82
2023/03/09 02:40:49;;;;;;;12.75;9.02;;;1.00;99.90;;;;;;5059346;28;20037;-80
2023/03/09 02:43:20;;;;;;;11.70;9.00;;;1.00;99.90;;;;;;5056716;28;20021;-82
2023/03/09 02:45:48;;;;;;;14.55;10.15;;;1.00;99.90;;;;;;5047388;28;21709;-82
2023/03/09 02:48:15;;;;;;;15.23;9.93;;;1.00;99.90;;;;;;5043504;28;20036;-87
2023/03/09 02:50:41;;;;;;;12.60;9.65;;;1.00;99.90;;;;;;5047324;28;20094;-82
2023/03/09 02:53:06;;;;;;;14.45;10.00;;;1.00;99.90;;;;;;5059260;28;20482;-83
2023/03/09 02:55:32;;;;;;;15.90;10.35;;;1.00;99.90;;;;;;5044277;28;20041;-82
2023/03/09 02:57:58;;;;;;;12.43;9.23;;;1.00;99.90;;;;;;5036444;28;20036;-83
2023/03/09 03:00:24;;;;;;;16.80;11.27;;;1.00;99.90;;;;;;5044602;28;20032;-80
2023/03/09 03:02:50;;;;;;;15.40;10.45;;;1.00;99.90;;;;;;5053333;28;20511;-87
2023/03/09 03:05:15;;;;;;;17.33;11.80;;;1.00;99.90;;;;;;5051063;28;20107;-80
2023/03/09 03:07:41;;;;;;;16.02;10.85;;;1.00;99.90;;;;;;5063840;28;20313;-79
2023/03/09 03:10:07;;;;;;;14.35;10.43;;;1.00;99.90;;;;;;5058782;28;20032;-80
2023/03/09 03:12:33;;;;;;;16.67;11.48;;;1.00;99.90;;;;;;5070835;28;20136;-79
2023/03/09 03:15:00;;;;;;;17.98;11.27;;;1.00;99.90;;;;;;5044230;28;20108;-81
2023/03/09 03:17:25;;;;;;;15.10;10.20;;;1.00;99.90;;;;;;5043549;28;20035;-81
2023/03/09 03:19:52;;;;;;;15.55;10.82;;;1.00;99.90;;;;;;5062472;28;20123;-81
2023/03/09 03:22:18;;;;;;;15.48;10.23;;;1.00;99.90;;;;;;5064611;28;20484;-78
2023/03/09 03:24:43;;;;;;;14.82;10.32;;;1.00;99.90;;;;;;5052729;28;20073;-78
2023/03/09 03:27:10;;;;;;;17.48;11.70;;;1.00;99.90;;;;;;5048804;28;20044;-82
2023/03/09 03:29:36;;;;;;;19.67;12.18;;;1.00;99.90;;;;;;5040293;28;20504;-82
2023/03/09 03:32:02;;;;;;;16.83;11.23;;;1.00;99.90;;;;;;5050469;28;20033;-79
2023/03/09 03:34:28;;;;;;;15.73;10.80;;;1.00;99.90;;;;;;5054365;28;20025;-80
2023/03/09 03:36:54;;;;;;;14.85;10.15;;;1.00;99.90;;;;;;5049521;28;20384;-79
2023/03/09 03:39:19;;;;;;;15.40;10.40;;;1.00;99.90;;;;;;5043804;28;20029;-80
2023/03/09 03:41:45;;;;;;;15.07;10.15;;;1.00;99.90;;;;;;5036919;28;20120;-88
2023/03/09 03:44:11;;;;;;;15.82;10.73;;;1.00;99.90;;;;;;5035517;28;20503;-80
2023/03/09 03:46:36;;;;;;;14.82;10.05;;;1.00;99.90;;;;;;5046568;28;20037;-80
2023/03/09 03:49:02;;;;;;;16.05;10.68;;;1.00;99.90;;;;;;5056985;28;20060;-80
2023/03/09 03:51:28;;;;;;;16.35;10.95;;;1.00;99.90;;;;;;5058461;28;20035;-80
2023/03/09 03:53:53;;;;;;;16.60;9.73;;;1.00;99.90;;;;;;5044336;28;20126;-79
2023/03/09 03:56:19;;;;;;;14.23;10.20;;;1.00;99.90;;;;;;5052598;28;20354;-80
2023/03/09 03:58:45;;;;;;;17.27;11.48;;;1.10;99.90;;;;;;5048817;28;20032;-79
2023/03/09 04:01:10;;;;;;;19.75;13.35;;;1.00;99.90;;;;;;5037004;28;20033;-80
2023/03/09 04:03:36;;;;;;;21.08;14.27;;;1.00;99.90;;;;;;5039844;28;20036;-83
2023/03/09 04:06:02;;;;;;;24.08;13.73;;;1.00;99.90;;;;;;5039199;28;20040;-82
2023/03/09 04:08:28;;;;;;;18.55;12.85;;;1.00;99.90;;;;;;5053783;28;20033;-79
2023/03/09 04:10:54;;;;;;;18.45;12.80;;;0.90;99.90;;;;;;5043418;28;20044;-79
2023/03/09 04:13:20;;;;;;;16.15;11.13;;;0.90;99.90;;;;;;5049464;28;20029;-83
2023/03/09 04:15:46;;;;;;;14.73;10.40;;;0.90;99.90;;;;;;5052976;28;20025;-81
2023/03/09 04:18:12;;;;;;;13.95;10.18;;;0.90;99.90;;;;;;5049794;28;20179;-80
2023/03/09 04:20:40;;;;;;;14.13;10.10;;;0.80;99.90;;;;;;5053164;28;20029;-79
2023/03/09 04:23:09;;;;;;;13.27;9.45;;;0.80;99.90;;;;;;5051762;28;20505;-80
2023/03/09 04:25:35;;;;;;;13.05;7.68;;;0.80;99.90;;;;;;5044262;28;20048;-84
2023/03/09 04:28:02;;;;;;;10.48;7.43;;;0.80;99.90;;;;;;5052127;28;20025;-90
2023/03/09 04:30:28;;;;;;;11.30;8.15;;;0.80;99.90;;;;;;5050525;28;20031;-84
2023/03/09 04:32:53;;;;;;;11.82;8.57;;;0.80;99.90;;;;;;5054244;28;21028;-80
2023/03/09 04:35:19;;;;;;;11.75;8.35;;;0.90;99.90;;;;;;5048580;28;20397;-82
2023/03/09 04:37:45;;;;;;;13.20;9.05;;;0.80;99.90;;;;;;5051179;28;20021;-80
2023/03/09 04:40:12;;;;;;;13.48;9.43;;;0.80;99.90;;;;;;5046614;28;20025;-89
2023/03/09 04:42:37;;;;;;;14.10;9.63;;;0.80;99.90;;;;;;5046079;28;20051;-80
2023/03/09 04:45:03;;;;;;;12.27;8.90;;;0.80;99.90;;;;;;5048000;28;20481;-80
2023/03/09 04:47:30;;;;;;;10.48;7.45;;;0.80;99.90;;;;;;5048402;28;20047;-81
2023/03/09 04:49:55;;;;;;;11.07;8.25;;;0.80;99.90;;;;;;5049673;28;20079;-80
2023/03/09 04:52:21;;;;;;;10.88;7.93;;;0.80;99.90;;;;;;5052052;28;20028;-85
2023/03/09 04:54:47;;;;;;;12.48;8.52;;;0.80;99.90;;;;;;5047682;28;20036;-80
2023/03/09 04:57:14;;;;;;;14.13;9.93;;;0.90;99.90;;;;;;5065849;28;20044;-81
2023/03/09 04:59:39;;;;;;;15.20;9.73;;;0.90;99.90;;;;;;5056585;28;20063;-81
2023/03/09 05:02:05;;;;;;;15.25;9.77;;;0.90;99.90;;;;;;5055724;28;20025;-83
2023/03/09 05:04:31;;;;;;;14.15;9.70;;;0.90;99.90;;;;;;5047419;28;20205;-81
2023/03/09 05:06:56;;;;;;;14.57;9.93;;;0.90;99.90;;;;;;5047330;28;20045;-82
2023/03/09 05:09:22;;;;;;;14.07;9.60;;;0.80;99.90;;;;;;5055091;28;20053;-81
2023/03/09 05:11:51;;;;;;;16.23;11.40;;;0.80;99.90;;;;;;5045043;28;20079;-82
2023/03/09 05:14:18;;;;;;;15.73;10.02;;;0.80;99.90;;;;;;5059785;28;20033;-80
2023/03/09 05:16:44;;;;;;;15.20;9.35;;;0.80;99.90;;;;;;5053551;28;20033;-82
2023/03/09 05:19:11;;;;;;;15.00;9.82;;;0.90;99.90;;;;;;5052504;28;20029;-80
2023/03/09 05:21:37;;;;;;;17.70;11.30;;;0.80;99.90;;;;;;5055065;28;20474;-83
2023/03/09 05:24:04;;;;;;;14.52;9.60;;;0.80;99.90;;;;;;5041624;28;20049;-81
2023/03/09 05:26:29;;;;;;;14.35;9.18;;;0.80;99.90;;;;;;5045503;28;20374;-80
2023/03/09 05:28:55;;;;;;;14.60;9.75;;;0.80;99.90;;;;;;5046095;28;20738;-87
2023/03/09 05:31:21;;;;;;;13.65;9.43;;;0.90;99.90;;;;;;5046316;28;20024;-84
2023/03/09 05:33:46;;;;;;;19.42;11.82;;;0.90;99.90;;;;;;5032586;28;20032;-82
2023/03/09 05:36:21;;;;;;;17.38;10.65;;;0.90;99.90;;;;;;5049746;28;20025;-81
2023/03/09 05:38:48;;;;;;;15.05;9.63;;;0.90;99.90;;;;;;5060934;28;20127;-81
2023/03/09 05:41:13;;;;;;;15.30;10.40;;;0.90;99.90;;;;;;5062392;28;20037;-80
2023/03/09 05:43:42;;;;;;;14.23;9.40;;;0.90;99.90;;;;;;5058981;28;20246;-81
2023/03/09 05:46:13;;;;;;;17.40;11.30;;;0.90;99.90;;;;;;5058087;28;20033;-82
2023/03/09 05:48:39;;;;;;;19.48;11.25;;;1.00;99.90;;;;;;5056031;28;20025;-82
2023/03/09 05:51:05;;;;;;;17.83;11.48;;;0.90;99.90;;;;;;5054457;28;20562;-86
2023/03/09 05:53:32;;;;;;;17.90;11.40;;;0.90;99.90;;;;;;5046898;28;20095;-84
2023/03/09 05:55:58;;;;;;;15.55;10.02;;;0.90;99.90;;;;;;5045832;28;20646;-82
2023/03/09 05:58:24;;;;;;;16.05;10.25;;;0.90;99.90;;;;;;5030679;28;20025;-82
2023/03/09 06:00:52;;;;;;;16.10;10.38;;;0.90;99.90;;;;;;5037508;28;20479;-85
2023/03/09 06:03:24;;;;;;;14.43;9.70;;;0.90;99.90;;;;;;5046166;28;20025;-83
2023/03/09 06:06:01;;;;;;;15.35;9.95;;;0.90;99.90;;;;;;5043190;28;20489;-84
2023/03/09 06:08:27;;;;;;;16.33;10.63;;;0.90;99.90;;;;;;5059887;28;20120;-82
2023/03/09 06:10:53;;;;;;;17.58;11.45;;;0.90;99.90;;;;;;5047614;28;20377;-82
2023/03/09 06:13:20;;;;;;;17.17;11.93;;;0.90;99.90;;;;;;5046765;28;20033;-82
2023/03/09 06:15:46;;;;;;;17.55;10.57;;;0.90;99.90;;;;;;5047131;28;20033;-81
2023/03/09 06:18:11;;;;;;;16.35;10.15;;;0.90;99.90;;;;;;5050500;28;20107;-83
2023/03/09 06:20:37;;;;;;;17.58;11.70;;;0.90;99.90;;;;;;5048530;28;20036;-84
2023/03/09 06:23:03;;;;;;;15.90;10.52;;;0.90;99.90;;;;;;5047563;28;20056;-82
2023/03/09 06:25:29;;;;;;;16.40;10.93;;;0.90;99.90;;;;;;5041553;28;20041;-84
2023/03/09 06:27:55;;;;;;;17.63;10.18;;;0.90;99.90;;;;;;5047151;28;20445;-81
2023/03/09 06:30:21;;;;;;;15.63;10.35;;;0.90;99.90;;;;;;5055147;28;20694;-83
2023/03/09 06:32:47;;;;;;;16.08;10.35;;;0.90;99.90;;;;;;5066811;28;20072;-81
2023/03/09 06:35:13;;;;;;;14.43;10.10;;;0.90;99.90;;;;;;5048316;28;20505;-84
2023/03/09 06:37:38;;;;;;;14.48;9.88;;;0.80;99.90;;;;;;5050357;28;20025;-82
2023/03/09 06:40:04;;;;;;;18.10;10.85;;;0.90;99.90;;;;;;5051224;28;20033;-82
2023/03/09 06:42:30;;;;;;;18.88;10.82;;;0.90;99.90;;;;;;5048643;28;20029;-82
2023/03/09 06:44:56;;;;;;;18.40;11.50;;;0.90;99.90;;;;;;5052016;28;20515;-82
2023/03/09 06:47:21;;;;;;;17.75;11.40;;;0.90;99.90;;;;;;5056715;28;20522;-82
2023/03/09 06:49:47;;;;;;;18.20;11.70;;;1.00;99.90;;;;;;5052499;28;20051;-82
2023/03/09 06:52:33;;;;;;;20.33;11.95;;;1.10;99.90;;;;;;5052709;28;20119;-83
2023/03/09 06:54:58;;;;;;;19.35;11.25;;;1.00;99.90;;;;;;5046775;28;20040;-82
2023/03/09 06:57:24;;;;;;;16.17;10.63;;;1.00;99.90;;;;;;5057215;28;20107;-82
2023/03/09 06:59:49;;;;;;;17.80;10.02;;;1.00;99.90;;;;;;5047830;28;20071;-87
2023/03/09 07:02:15;;;;;;;17.17;11.45;;;1.00;99.90;;;;;;5047838;28;20021;-92
2023/03/09 07:04:41;;;;;;;17.88;11.50;;;1.00;99.90;;;;;;5054537;28;20029;-81
2023/03/09 07:07:08;;;;;;;18.23;10.98;;;1.00;99.90;;;;;;5053758;28;20040;-87
2023/03/09 07:09:34;;;;;;;18.35;11.35;;;1.00;99.90;;;;;;5047362;28;20040;-82
2023/03/09 07:12:00;;;;;;;16.83;11.07;;;1.00;99.90;;;;;;5046730;28;20044;-82
2023/03/09 07:14:26;;;;;;;19.35;11.85;;;1.00;99.90;;;;;;5049003;28;20025;-82
2023/03/09 07:16:53;;;;;;;16.60;10.65;;;0.90;99.90;;;;;;5054885;28;20035;-85
2023/03/09 07:19:21;;;;;;;18.50;12.05;;;1.00;99.90;;;;;;5054289;28;20111;-83
2023/03/09 07:21:46;;;;;;;20.50;13.10;;;1.00;99.90;;;;;;5036712;28;20485;-81
2023/03/09 07:24:12;;;;;;;21.70;13.13;;;1.00;99.90;;;;;;5051778;28;20060;-82
2023/03/09 07:26:38;;;;;;;22.33;13.45;;;1.00;99.90;;;;;;5048329;28;20400;-82
2023/03/09 07:29:03;;;;;;;19.55;12.43;;;1.00;99.90;;;;;;5049625;28;20125;-82
2023/03/09 07:31:29;;;;;;;21.70;13.52;;;1.00;99.90;;;;;;5045636;28;20036;-82
2023/03/09 07:33:58;;;;;;;21.40;13.07;;;1.00;99.90;;;;;;5059563;28;20048;-82
2023/03/09 07:36:24;;;;;;;23.20;14.88;;;1.10;99.90;;;;;;5051771;28;20086;-83
2023/03/09 07:38:51;;;;;;;19.75;12.95;;;1.10;99.90;;;;;;5049100;28;20025;-92
2023/03/09 07:41:17;;;;;;;20.08;12.93;;;1.10;99.90;;;;;;5053115;28;20057;-83
2023/03/09 07:43:43;;;;;;;21.17;13.43;;;1.10;99.90;;;;;;5044973;28;20033;-84
2023/03/09 07:46:15;;;;;;;22.55;13.38;;;1.10;99.90;;;;;;5055503;28;20123;-82
2023/03/09 07:48:42;;;;;;;22.45;13.77;;;1.10;99.90;;;;;;5051541;28;20076;-93
2023/03/09 07:51:08;;;;;;;20.77;13.15;;;1.10;99.90;;;;;;5050681;28;20095;-83
2023/03/09 07:53:35;;;;;;;20.50;12.88;;;1.20;99.90;;;;;;5057121;28;20037;-82
2023/03/09 07:56:03;;;;;;;20.40;13.43;;;1.20;99.90;;;;;;5055836;28;20033;-82
2023/03/09 07:58:30;;;;;;;23.92;14.10;;;1.20;99.90;;;;;;5045029;28;20553;-83
2023/03/09 08:00:56;;;;;;;19.77;12.73;;;1.20;99.90;;;;;;5052278;28;20088;-82
2023/03/09 08:03:22;;;;;;;22.42;13.77;;;1.20;99.90;;;;;;5060162;28;20029;-86
2023/03/09 08:05:49;;;;;;;19.27;12.07;;;1.30;99.90;;;;;;5056440;28;20024;-82
2023/03/09 08:08:15;;;;;;;20.50;12.27;;;1.30;99.90;;;;;;5057538;28;20082;-83
2023/03/09 08:10:47;;;;;;;19.70;13.25;;;1.30;99.90;;;;;;5056217;28;20029;-82
2023/03/09 08:13:13;;;;;;;19.73;12.18;;;1.30;99.90;;;;;;5055431;28;20140;-83
2023/03/09 08:15:40;;;;;;;19.25;11.98;;;1.30;99.90;;;;;;5054070;28;20222;-92
2023/03/09 08:18:06;;;;;;;18.42;11.95;;;1.40;99.90;;;;;;5054627;28;20043;-86
2023/03/09 08:20:31;;;;;;;18.92;12.73;;;1.40;99.90;;;;;;5052699;28;20029;-82
2023/03/09 08:22:57;;;;;;;19.70;11.98;;;1.40;99.90;;;;;;5058122;28;20028;-82
2023/03/09 08:25:23;;;;;;;18.90;12.98;;;1.40;99.90;;;;;;5057661;28;20406;-82
2023/03/09 08:27:48;;;;;;;18.67;12.32;;;1.40;99.90;;;;;;5057072;28;20120;-82
2023/03/09 08:30:16;;;;;;;21.38;13.13;;;1.50;99.90;;;;;;5051271;28;20116;-83
2023/03/09 08:32:42;;;;;;;27.35;16.20;;;1.50;99.90;;;;;;5052339;28;20063;-83
2023/03/09 08:35:08;;;;;;;23.27;13.15;;;1.50;99.90;;;;;;5051736;28;20437;-82
2023/03/09 08:37:34;;;;;;;21.00;13.27;;;1.50;99.90;;;;;;5058972;28;20036;-82
2023/03/09 08:40:00;;;;;;;23.00;14.50;;;1.50;99.90;;;;;;5059938;28;20029;-84
2023/03/09 08:42:25;;;;;;;21.48;14.35;;;1.50;99.90;;;;;;5060345;28;20119;-82
2023/03/09 08:44:51;;;;;;;25.60;15.95;;;1.50;99.90;;;;;;5058918;28;20025;-88
2023/03/09 08:47:17;;;;;;;29.67;17.73;;;1.60;99.90;;;;;;5063664;28;20040;-82
2023/03/09 08:49:42;;;;;;;26.15;15.75;;;1.60;99.90;;;;;;5064028;28;20020;-83
2023/03/09 08:52:08;;;;;;;24.80;15.45;;;1.60;99.90;;;;;;5066251;28;20414;-83
2023/03/09 08:54:34;;;;;;;22.67;15.68;;;1.60;99.90;;;;;;5065960;28;20047;-83
2023/03/09 08:57:00;;;;;;;25.40;15.73;;;1.60;99.90;;;;;;5066873;28;20025;-84
2023/03/09 08:59:25;;;;;;;24.08;16.05;;;1.60;99.90;;;;;;5062589;28;20033;-89
2023/03/09 09:01:51;;;;;;;28.75;16.48;;;1.60;99.90;;;;;;5054600;28;20029;-86
2023/03/09 09:04:17;;;;;;;27.40;16.90;;;1.60;99.90;;;;;;5059770;28;20029;-84
2023/03/09 09:06:42;;;;;;;28.60;17.40;;;1.60;99.90;;;;;;5060198;28;20421;-84
2023/03/09 09:09:09;;;;;;;25.45;15.85;;;1.60;99.90;;;;;;5061965;28;20032;-85
2023/03/09 09:11:36;;;;;;;23.13;14.27;;;1.60;99.90;;;;;;5058636;28;20029;-94
2023/03/09 09:14:01;;;;;;;23.48;15.27;;;1.60;99.90;;;;;;5058649;28;20041;-83
2023/03/09 09:16:29;;;;;;;23.15;14.70;;;1.60;99.90;;;;;;5062948;28;20025;-82
2023/03/09 09:18:55;;;;;;;29.83;17.63;;;1.60;99.90;;;;;;5062305;28;20028;-83
2023/03/09 09:21:20;;;;;;;31.65;19.10;;;1.60;99.90;;;;;;5066121;28;20029;-83
2023/03/09 09:23:46;;;;;;;35.60;22.23;;;1.60;99.90;;;;;;5056873;28;20519;-93
2023/03/09 09:26:13;;;;;;;30.73;20.15;;;1.60;99.90;;;;;;5056042;28;20390;-82
2023/03/09 09:28:39;;;;;;;32.20;19.80;;;1.60;99.90;;;;;;5066776;28;20036;-83
2023/03/09 09:31:04;;;;;;;29.73;18.73;;;1.60;99.90;;;;;;5059180;28;20361;-83
2023/03/09 09:33:32;;;;;;;30.63;18.67;;;1.60;99.90;;;;;;5067955;28;20138;-82
2023/03/09 09:36:00;;;;;;;33.15;18.98;;;1.60;99.90;;;;;;5055356;28;20032;-84
2023/03/09 09:38:28;;;;;;;28.92;17.42;;;1.60;99.90;;;;;;5064424;28;20055;-85
2023/03/09 09:40:56;;;;;;;29.75;18.17;;;1.60;99.90;;;;;;5057580;28;20025;-83
2023/03/09 09:43:23;;;;;;;29.30;17.00;;;1.60;99.90;;;;;;5057932;28;20067;-85
2023/03/09 09:45:51;;;;;;;31.70;18.70;;;1.70;99.90;;;;;;5059604;28;20033;-87
2023/03/09 09:48:18;;;;;;;28.30;16.58;;;1.70;99.90;;;;;;5048287;28;20111;-83
2023/03/09 09:50:57;;;;;;;27.25;16.52;;;1.60;99.90;;;;;;5050238;28;20436;-83
2023/03/09 09:54:05;;;;;;;27.55;17.35;;;1.70;99.90;;;;;;5058661;28;20561;-84
2023/03/09 09:56:59;;;;;;;29.05;17.67;;;1.70;99.90;;;;;;5052748;28;20907;-83
2023/03/09 09:59:31;;;;;;;28.88;17.33;;;1.70;99.90;;;;;;5058506;28;20028;-83
2023/03/09 10:02:06;;;;;;;30.00;18.17;;;1.70;99.90;;;;;;5057851;28;20131;-82
2023/03/09 10:04:43;;;;;;;29.35;17.77;;;1.80;99.90;;;;;;5049036;28;20036;-83
2023/03/09 10:07:17;;;;;;;29.40;16.95;;;1.80;99.90;;;;;;5060693;28;20068;-82
2023/03/09 10:09:46;;;;;;;29.42;18.02;;;1.80;99.90;;;;;;5052776;28;20035;-82
2023/03/09 10:12:15;;;;;;;23.35;14.93;;;1.80;99.90;;;;;;5057794;28;20043;-82
2023/03/09 10:15:21;;;;;;;30.90;17.80;;;1.80;99.90;;;;;;5057315;28;20032;-85
2023/03/09 10:18:06;;;;;;;33.65;20.17;;;1.90;99.90;;;;;;4999676;28;20195;-83
2023/03/09 10:20:58;;;;;;;45.85;23.88;;;1.90;99.90;;;;;;5054572;28;20493;-82
2023/03/09 10:23:33;;;;;;;40.80;22.92;;;2.00;99.90;;;;;;5034151;28;20035;-83
2023/03/09 10:26:23;;;;;;;36.40;22.63;;;2.00;99.90;;;;;;5051646;28;20067;-83
2023/03/09 10:28:55;;;;;;;34.50;21.05;;;2.00;99.90;;;;;;5050003;28;20366;-88
2023/03/09 10:31:38;;;;;;;36.83;21.50;;;2.00;99.90;;;;;;5047072;28;20024;-89
2023/03/09 10:34:20;;;;;;;36.05;22.67;;;2.00;99.90;;;;;;5050005;28;20033;-83
2023/03/09 10:37:00;;;;;;;38.10;22.38;;;2.10;99.90;;;;;;5056503;28;20391;-86
2023/03/09 10:39:33;;;;;;;35.85;20.52;;;2.10;99.90;;;;;;5047981;28;20104;-84
2023/03/09 10:42:31;;;;;;;34.80;18.80;;;2.10;99.90;;;;;;5048564;28;20032;-84
2023/03/09 10:45:01;;;;;;;30.38;18.15;;;2.10;99.90;;;;;;5028177;28;20040;-83
2023/03/09 10:47:47;;;;;;;30.02;18.38;;;2.20;99.90;;;;;;5050049;28;20488;-87
2023/03/09 10:50:14;;;;;;;30.10;18.25;;;2.20;99.90;;;;;;5046570;28;20465;-83
2023/03/09 10:52:40;;;;;;;33.08;18.75;;;2.20;99.90;;;;;;5054279;28;20162;-83
2023/03/09 10:55:36;;;;;;;42.83;24.90;;;2.20;99.90;;;;;;5055660;28;20115;-92
2023/03/09 10:58:14;;;;;;;40.75;24.20;;;2.20;99.90;;;;;;5027437;28;20076;-83
2023/03/09 11:01:17;;;;;;;39.22;22.70;;;2.10;99.90;;;;;;5050671;28;20063;-83
2023/03/09 11:03:43;;;;;;;43.00;24.23;;;2.10;99.90;;;;;;5050399;28;20113;-83
2023/03/09 11:06:12;;;;;;;36.92;22.45;;;2.00;99.90;;;;;;5047192;28;20128;-83
2023/03/09 11:08:40;;;;;;;34.00;20.83;;;2.00;99.90;;;;;;5049776;28;20020;-80
2023/03/09 11:11:12;;;;;;;33.03;19.88;;;2.00;99.90;;;;;;5048602;28;20036;-83
2023/03/09 11:13:45;;;;;;;33.33;19.42;;;2.00;99.90;;;;;;5043539;28;20028;-81
2023/03/09 11:16:26;;;;;;;37.20;21.42;;;2.00;99.90;;;;;;5050626;28;20041;-82
2023/03/09 11:19:13;;;;;;;43.05;25.13;;;2.00;99.90;;;;;;5051858;28;20542;-81
2023/03/09 11:21:56;;;;;;;34.35;20.08;;;2.00;99.90;;;;;;5053289;28;20103;-80
2023/03/09 11:24:29;;;;;;;40.05;21.77;;;2.00;99.90;;;;;;5058572;28;20076;-82
2023/03/09 11:27:02;;;;;;;42.42;23.65;;;2.00;99.90;;;;;;5050035;28;20041;-83
2023/03/09 11:29:43;;;;;;;39.03;22.70;;;2.00;99.90;;;;;;5059226;28;20052;-82
2023/03/09 11:32:11;;;;;;;37.58;21.90;;;2.00;99.90;;;;;;5056368;28;20070;-80
2023/03/09 11:34:40;;;;;;;40.72;22.80;;;2.10;99.90;;;;;;5051289;28;20094;-80
2023/03/09 11:37:33;;;;;;;36.45;22.42;;;2.10;99.90;;;;;;5054933;28;20118;-89
2023/03/09 11:40:17;;;;;;;40.80;23.25;;;2.10;99.90;;;;;;5057022;28;20029;-81
2023/03/09 11:43:03;;;;;;;41.95;23.73;;;2.10;99.90;;;;;;5058260;28;20465;-80
2023/03/09 11:45:31;;;;;;;44.13;22.58;;;2.10;99.90;;;;;;5055723;28;20426;-81
2023/03/09 11:48:25;;;;;;;38.53;22.92;;;2.10;99.90;;;;;;5055952;28;20045;-81
2023/03/09 11:51:08;;;;;;;40.35;23.35;;;2.10;99.90;;;;;;5050246;28;20041;-81
2023/03/09 11:53:39;;;;;;;46.70;25.10;;;2.10;99.90;;;;;;5051688;28;20380;-80
2023/03/09 11:56:32;;;;;;;40.20;23.30;;;2.10;99.90;;;;;;5059309;28;20029;-83
2023/03/09 11:59:18;;;;;;;38.00;22.35;;;2.10;99.90;;;;;;5057527;28;20033;-80
2023/03/09 12:02:13;;;;;;;41.97;24.83;;;2.10;99.90;;;;;;5058924;28;20047;-80
2023/03/09 12:04:39;;;;;;;44.50;25.40;;;2.10;99.90;;;;;;5039088;28;20093;-83
2023/03/09 12:07:18;;;;;;;42.22;24.23;;;2.00;99.90;;;;;;5060905;28;20056;-84
2023/03/09 12:10:06;;;;;;;42.17;24.52;;;2.00;99.90;;;;;;5047442;28;20025;-81
2023/03/09 12:12:36;;;;;;;37.42;22.27;;;2.00;99.90;;;;;;5053663;28;20470;-83
2023/03/09 12:15:46;;;;;;;39.58;23.15;;;2.00;99.90;;;;;;5057703;28;20266;-82
2023/03/09 12:18:23;;;;;;;39.50;23.30;;;2.00;99.90;;;;;;5014806;28;20075;-83
2023/03/09 12:20:57;;;;;;;45.92;25.55;;;2.00;99.90;;;;;;5051804;28;20061;-83
2023/03/09 12:23:35;;;;;;;43.40;24.70;;;2.00;99.90;;;;;;5055802;28;20026;-81
2023/03/09 12:26:12;;;;;;;41.92;24.40;;;2.00;99.90;;;;;;5052388;28;20052;-82
2023/03/09 12:28:39;;;;;;;45.03;25.67;;;2.00;99.90;;;;;;5044439;28;20028;-81
2023/03/09 12:31:05;;;;;;;44.42;25.23;;;2.00;99.90;;;;;;5052082;28;20057;-81
2023/03/09 12:33:43;;;;;;;46.33;25.45;;;2.00;99.90;;;;;;5056616;28;20292;-84
2023/03/09 12:36:30;;;;;;;47.17;26.60;;;2.00;99.90;;;;;;5059814;28;20036;-83
2023/03/09 12:39:28;;;;;;;49.42;26.25;;;2.00;99.90;;;;;;5042711;28;20044;-82
2023/03/09 12:42:03;;;;;;;40.92;23.70;;;2.00;99.90;;;;;;5047215;28;20028;-82
2023/03/09 12:44:44;;;;;;;49.67;26.95;;;2.10;99.90;;;;;;5057767;28;20106;-81
2023/03/09 12:47:33;;;;;;;52.22;27.67;;;2.10;99.90;;;;;;5058793;28;20037;-82
2023/03/09 12:50:00;;;;;;;67.88;32.53;;;2.10;99.90;;;;;;5051086;28;20036;-82
2023/03/09 12:52:32;;;;;;;54.33;29.25;;;2.10;99.90;;;;;;5055951;28;20078;-82